sensor_id;sensor_type;location;lat;lon;timestamp;pressure;altitude;pressure_sealevel;temperature;humidity
21401;BME280;18038;50.166;18.908;2023-07-29T11:04:26;97446.94;;;27.39;41.25
21401;BME280;18038;50.166;18.908;2023-07-29T11:07:45;97443.88;;;27.01;43.09
21401;BME280;18038;50.166;18.908;2023-07-29T11:10:58;97437.94;;;27.07;43.06
21401;BME280;18038;50.166;18.908;2023-07-29T11:14:10;97440.59;;;27.30;42.80
21401;BME280;18038;50.166;18.908;2023-07-29T11:17:18;97431.38;;;27.17;41.65
21401;BME280;18038;50.166;18.908;2023-07-29T11:20:29;97429.16;;;26.57;41.93
21401;BME280;18038;50.166;18.908;2023-07-29T11:23:37;97432.25;;;26.64;42.89
21401;BME280;18038;50.166;18.908;2023-07-29T11:26:46;97426.56;;;26.60;43.91
21401;BME280;18038;50.166;18.908;2023-07-29T11:29:56;97429.59;;;27.21;42.96
21401;BME280;18038;50.166;18.908;2023-07-29T11:33:07;97410.84;;;27.54;42.39
21401;BME280;18038;50.166;18.908;2023-07-29T11:36:22;97404.53;;;27.71;41.52
21401;BME280;18038;50.166;18.908;2023-07-29T11:39:29;97416.16;;;27.60;41.31
21401;BME280;18038;50.166;18.908;2023-07-29T11:42:36;97417.19;;;27.24;42.35
21401;BME280;18038;50.166;18.908;2023-07-29T11:45:45;97415.59;;;27.31;41.06
21401;BME280;18038;50.166;18.908;2023-07-29T11:48:54;97404.22;;;27.55;41.10
21401;BME280;18038;50.166;18.908;2023-07-29T11:52:06;97403.28;;;27.77;39.91
21401;BME280;18038;50.166;18.908;2023-07-29T11:55:15;97401.16;;;27.57;40.62
21401;BME280;18038;50.166;18.908;2023-07-29T11:58:24;97408.63;;;28.00;41.23
21401;BME280;18038;50.166;18.908;2023-07-29T12:01:34;97400.56;;;28.04;39.91
21401;BME280;18038;50.166;18.908;2023-07-29T12:04:46;97395.19;;;28.16;39.39
21401;BME280;18038;50.166;18.908;2023-07-29T12:07:58;97398.69;;;28.60;38.94
21401;BME280;18038;50.166;18.908;2023-07-29T12:11:07;97392.44;;;27.55;40.09
21401;BME280;18038;50.166;18.908;2023-07-29T12:14:16;97404.84;;;27.35;41.91
21401;BME280;18038;50.166;18.908;2023-07-29T12:17:24;97395.41;;;27.10;42.52
21401;BME280;18038;50.166;18.908;2023-07-29T12:20:32;97389.41;;;26.99;41.84
21401;BME280;18038;50.166;18.908;2023-07-29T12:24:16;97381.63;;;25.49;43.72
21401;BME280;18038;50.166;18.908;2023-07-29T12:27:30;97369.19;;;25.56;44.63
21401;BME280;18038;50.166;18.908;2023-07-29T12:30:41;97374.38;;;26.57;43.03
21401;BME280;18038;50.166;18.908;2023-07-29T12:33:56;97376.56;;;27.17;41.81
21401;BME280;18038;50.166;18.908;2023-07-29T12:37:07;97364.66;;;27.22;42.22
21401;BME280;18038;50.166;18.908;2023-07-29T12:40:26;97373.22;;;26.80;40.43
21401;BME280;18038;50.166;18.908;2023-07-29T12:43:37;97367.13;;;26.21;42.75
21401;BME280;18038;50.166;18.908;2023-07-29T12:46:49;97362.88;;;25.92;42.63
21401;BME280;18038;50.166;18.908;2023-07-29T12:49:58;97362.09;;;26.14;42.13
21401;BME280;18038;50.166;18.908;2023-07-29T12:53:09;97364.25;;;26.03;42.54
21401;BME280;18038;50.166;18.908;2023-07-29T12:56:21;97359.94;;;26.11;41.49
21401;BME280;18038;50.166;18.908;2023-07-29T12:59:30;97345.91;;;26.04;41.20
21401;BME280;18038;50.166;18.908;2023-07-29T13:02:39;97357.47;;;26.01;40.82
21401;BME280;18038;50.166;18.908;2023-07-29T13:05:49;97355.78;;;25.91;41.33
21401;BME280;18038;50.166;18.908;2023-07-29T13:08:57;97362.44;;;25.99;41.26
21401;BME280;18038;50.166;18.908;2023-07-29T13:12:10;97361.81;;;26.02;41.06
21401;BME280;18038;50.166;18.908;2023-07-29T13:15:18;97350.50;;;26.17;41.51
21401;BME280;18038;50.166;18.908;2023-07-29T13:18:29;97364.72;;;26.28;39.59
21401;BME280;18038;50.166;18.908;2023-07-29T13:21:38;97358.31;;;26.10;40.67
21401;BME280;18038;50.166;18.908;2023-07-29T13:24:48;97354.47;;;26.11;41.60
21401;BME280;18038;50.166;18.908;2023-07-29T13:27:59;97348.16;;;25.79;41.13
21401;BME280;18038;50.166;18.908;2023-07-29T13:31:08;97321.09;;;25.19;42.52
21401;BME280;18038;50.166;18.908;2023-07-29T13:34:18;97348.22;;;25.15;42.41
21401;BME280;18038;50.166;18.908;2023-07-29T13:37:27;97340.81;;;25.16;41.04
21401;BME280;18038;50.166;18.908;2023-07-29T13:40:36;97342.38;;;25.31;41.77
21401;BME280;18038;50.166;18.908;2023-07-29T13:43:48;97338.19;;;25.61;41.36
21401;BME280;18038;50.166;18.908;2023-07-29T13:46:56;97336.25;;;25.62;41.27
21401;BME280;18038;50.166;18.908;2023-07-29T13:50:07;97329.91;;;25.52;42.67
21401;BME280;18038;50.166;18.908;2023-07-29T13:53:17;97333.16;;;25.41;43.55
21401;BME280;18038;50.166;18.908;2023-07-29T13:56:27;97329.06;;;25.66;43.99
21401;BME280;18038;50.166;18.908;2023-07-29T13:59:38;97322.34;;;25.72;43.50
21401;BME280;18038;50.166;18.908;2023-07-29T14:02:47;97316.69;;;25.91;43.12
21401;BME280;18038;50.166;18.908;2023-07-29T14:05:56;97321.53;;;25.94;43.12
21401;BME280;18038;50.166;18.908;2023-07-29T14:09:05;97314.06;;;25.86;42.62
21401;BME280;18038;50.166;18.908;2023-07-29T14:12:17;97299.84;;;25.97;42.76
21401;BME280;18038;50.166;18.908;2023-07-29T14:15:29;97305.44;;;25.92;42.98
21401;BME280;18038;50.166;18.908;2023-07-29T14:18:38;97303.16;;;25.63;44.05
21401;BME280;18038;50.166;18.908;2023-07-29T14:21:48;97286.69;;;25.04;43.79
21401;BME280;18038;50.166;18.908;2023-07-29T14:24:57;97295.00;;;24.85;45.05
21401;BME280;18038;50.166;18.908;2023-07-29T14:28:06;97287.75;;;24.94;44.63
21401;BME280;18038;50.166;18.908;2023-07-29T14:31:18;97289.09;;;25.20;43.84
21401;BME280;18038;50.166;18.908;2023-07-29T14:34:28;97290.41;;;25.22;44.67
21401;BME280;18038;50.166;18.908;2023-07-29T14:37:37;97282.94;;;25.14;44.77
21401;BME280;18038;50.166;18.908;2023-07-29T14:40:48;97279.91;;;25.15;45.04
21401;BME280;18038;50.166;18.908;2023-07-29T14:43:58;97271.50;;;25.12;45.04
21401;BME280;18038;50.166;18.908;2023-07-29T14:47:10;97281.78;;;24.92;44.96
21401;BME280;18038;50.166;18.908;2023-07-29T14:50:19;97287.13;;;24.98;44.90
21401;BME280;18038;50.166;18.908;2023-07-29T14:53:28;97276.91;;;25.03;44.48
21401;BME280;18038;50.166;18.908;2023-07-29T14:56:36;97284.00;;;24.90;44.77
21401;BME280;18038;50.166;18.908;2023-07-29T14:59:46;97282.16;;;25.13;45.35
21401;BME280;18038;50.166;18.908;2023-07-29T15:02:56;97279.63;;;25.03;44.77
21401;BME280;18038;50.166;18.908;2023-07-29T15:06:12;97289.75;;;24.75;45.65
21401;BME280;18038;50.166;18.908;2023-07-29T15:09:21;97294.31;;;24.66;46.17
21401;BME280;18038;50.166;18.908;2023-07-29T15:12:32;97295.34;;;24.84;46.19
21401;BME280;18038;50.166;18.908;2023-07-29T15:15:41;97295.63;;;25.10;45.94
21401;BME280;18038;50.166;18.908;2023-07-29T15:18:54;97297.13;;;24.88;46.34
21401;BME280;18038;50.166;18.908;2023-07-29T15:22:02;97310.25;;;25.14;46.74
21401;BME280;18038;50.166;18.908;2023-07-29T15:25:12;97314.44;;;24.98;45.85
21401;BME280;18038;50.166;18.908;2023-07-29T15:28:23;97320.81;;;24.93;45.74
21401;BME280;18038;50.166;18.908;2023-07-29T15:31:33;97310.47;;;25.04;43.69
21401;BME280;18038;50.166;18.908;2023-07-29T15:34:46;97313.22;;;25.04;42.82
21401;BME280;18038;50.166;18.908;2023-07-29T15:37:55;97309.69;;;25.03;42.94
21401;BME280;18038;50.166;18.908;2023-07-29T15:41:03;97317.06;;;24.89;42.44
21401;BME280;18038;50.166;18.908;2023-07-29T15:44:14;97314.66;;;24.73;43.03
21401;BME280;18038;50.166;18.908;2023-07-29T15:47:23;97321.53;;;24.57;43.73
21401;BME280;18038;50.166;18.908;2023-07-29T15:50:35;97330.00;;;24.56;44.22
21401;BME280;18038;50.166;18.908;2023-07-29T15:53:44;97320.69;;;24.29;44.87
21401;BME280;18038;50.166;18.908;2023-07-29T15:56:53;97315.09;;;24.06;45.32
21401;BME280;18038;50.166;18.908;2023-07-29T16:00:03;97304.91;;;23.93;46.72
21401;BME280;18038;50.166;18.908;2023-07-29T16:03:16;97293.44;;;23.96;47.38
21401;BME280;18038;50.166;18.908;2023-07-29T16:06:30;97282.47;;;23.82;47.40
21401;BME280;18038;50.166;18.908;2023-07-29T16:09:40;97284.63;;;23.85;47.74
21401;BME280;18038;50.166;18.908;2023-07-29T16:12:48;97282.06;;;23.75;48.41
21401;BME280;18038;50.166;18.908;2023-07-29T16:15:57;97278.75;;;23.59;48.29
21401;BME280;18038;50.166;18.908;2023-07-29T16:19:06;97269.13;;;23.48;49.05
21401;BME280;18038;50.166;18.908;2023-07-29T16:22:18;97265.63;;;23.29;49.27
21401;BME280;18038;50.166;18.908;2023-07-29T16:25:26;97260.91;;;23.15;49.70
21401;BME280;18038;50.166;18.908;2023-07-29T16:28:36;97262.53;;;22.97;50.35
21401;BME280;18038;50.166;18.908;2023-07-29T16:31:46;97265.78;;;23.00;51.00
21401;BME280;18038;50.166;18.908;2023-07-29T16:34:58;97259.84;;;22.92;50.90
21401;BME280;18038;50.166;18.908;2023-07-29T16:38:09;97256.97;;;22.84;51.24
21401;BME280;18038;50.166;18.908;2023-07-29T16:41:22;97233.28;;;22.65;51.55
21401;BME280;18038;50.166;18.908;2023-07-29T16:44:51;97253.44;;;22.83;52.04
21401;BME280;18038;50.166;18.908;2023-07-29T16:48:00;97248.88;;;22.79;51.75
21401;BME280;18038;50.166;18.908;2023-07-29T16:51:09;97248.72;;;22.70;52.07
21401;BME280;18038;50.166;18.908;2023-07-29T16:54:21;97242.75;;;22.68;52.56
21401;BME280;18038;50.166;18.908;2023-07-29T16:57:29;97240.19;;;22.76;52.54
21401;BME280;18038;50.166;18.908;2023-07-29T17:00:39;97249.53;;;22.89;52.18
21401;BME280;18038;50.166;18.908;2023-07-29T17:03:48;97252.06;;;22.86;52.37
21401;BME280;18038;50.166;18.908;2023-07-29T17:06:58;97263.94;;;22.71;52.09
21401;BME280;18038;50.166;18.908;2023-07-29T17:13:22;97250.06;;;22.72;50.59
21401;BME280;18038;50.166;18.908;2023-07-29T17:16:32;97262.03;;;22.71;49.70
21401;BME280;18038;50.166;18.908;2023-07-29T17:19:41;97254.56;;;22.58;49.60
21401;BME280;18038;50.166;18.908;2023-07-29T17:22:51;97248.81;;;22.41;50.41
21401;BME280;18038;50.166;18.908;2023-07-29T17:25:59;97253.72;;;22.39;50.29
21401;BME280;18038;50.166;18.908;2023-07-29T17:29:12;97261.16;;;22.04;51.88
21401;BME280;18038;50.166;18.908;2023-07-29T17:32:21;97268.13;;;21.86;52.74
21401;BME280;18038;50.166;18.908;2023-07-29T17:35:31;97281.66;;;21.62;53.52
21401;BME280;18038;50.166;18.908;2023-07-29T17:38:39;97291.31;;;21.39;54.14
21401;BME280;18038;50.166;18.908;2023-07-29T17:41:49;97284.38;;;21.22;54.50
21401;BME280;18038;50.166;18.908;2023-07-29T17:45:00;97279.13;;;20.97;54.75
21401;BME280;18038;50.166;18.908;2023-07-29T17:48:10;97282.97;;;20.75;56.44
21401;BME280;18038;50.166;18.908;2023-07-29T17:51:21;97277.38;;;20.51;56.08
21401;BME280;18038;50.166;18.908;2023-07-29T17:54:30;97276.91;;;20.39;55.83
21401;BME280;18038;50.166;18.908;2023-07-29T17:57:39;97268.00;;;20.23;56.33
21401;BME280;18038;50.166;18.908;2023-07-29T18:00:51;97272.56;;;20.28;56.57
21401;BME280;18038;50.166;18.908;2023-07-29T18:04:01;97277.50;;;20.21;57.07
21401;BME280;18038;50.166;18.908;2023-07-29T18:07:10;97287.78;;;20.19;57.19
21401;BME280;18038;50.166;18.908;2023-07-29T18:10:19;97292.41;;;20.13;57.86
21401;BME280;18038;50.166;18.908;2023-07-29T18:13:29;97294.03;;;20.14;57.92
21401;BME280;18038;50.166;18.908;2023-07-29T18:18:23;97296.19;;;20.12;58.03
21401;BME280;18038;50.166;18.908;2023-07-29T18:22:49;97302.16;;;20.09;58.58
21401;BME280;18038;50.166;18.908;2023-07-29T18:29:11;97307.06;;;19.81;59.60
21401;BME280;18038;50.166;18.908;2023-07-29T18:32:21;97299.50;;;19.68;60.27
21401;BME280;18038;50.166;18.908;2023-07-29T18:35:29;97292.97;;;19.48;61.46
21401;BME280;18038;50.166;18.908;2023-07-29T18:38:39;97296.75;;;19.42;61.99
21401;BME280;18038;50.166;18.908;2023-07-29T18:44:13;97305.13;;;19.25;63.07
21401;BME280;18038;50.166;18.908;2023-07-29T18:47:22;97315.38;;;19.18;63.63
21401;BME280;18038;50.166;18.908;2023-07-29T18:52:18;97322.69;;;19.13;64.43
21401;BME280;18038;50.166;18.908;2023-07-29T18:55:28;97324.56;;;19.12;64.71
21401;BME280;18038;50.166;18.908;2023-07-29T18:58:36;97336.97;;;19.03;65.31
